East Camden, New Jersey
Current Conditions -  °F | °C
As of 10:12 AM on Wednesday 26 Nov 2014 (Local Time) from KPHL Reporting Station
Moderate Rain Moderate Rain  
Wind Chill: 29°   Ceiling: 2200
Heat Index: 38°   Visibility: 2.5mi
Dew Point: 34°   Wind: 16mph
Humidity: 86%   Direction: 50°NE
Pressure: 30.08"   Gusts: NA
Location:  39.9508°N, 75.0881°W
Report Text: KPHL 261512Z 05014KT 2 1/2SM RA BR FEW008 SCT014 OVC022 03/01 A3008 RMK AO2 PRESFR P0004 T00330011 $
Loading
Personal Weather Stations






























Interactive Weather Map New forecast layout! Learn more

10-Day Weather Forecast

Advertisements
Track Severe Weather on mobile